createdAt,value
2022-12-08T00:01:15.042Z,98312.00
2022-12-08T00:04:19.714Z,98310.40
2022-12-08T00:07:42.499Z,98313.20
2022-12-08T00:10:49.427Z,98304.20
2022-12-08T00:13:55.821Z,98307.80
2022-12-08T00:17:02.705Z,98299.80
2022-12-08T00:20:10.658Z,98296.60
2022-12-08T00:23:15.177Z,98300.00
2022-12-08T00:26:19.984Z,98292.60
2022-12-08T00:29:24.811Z,98297.20
2022-12-08T00:32:29.775Z,98296.60
2022-12-08T00:35:38.737Z,98291.20
2022-12-08T00:38:47.916Z,98295.80
2022-12-08T00:42:11.085Z,98302.60
2022-12-08T00:45:16.273Z,98301.40
2022-12-08T00:48:20.958Z,98299.00
2022-12-08T00:51:25.638Z,98305.20
2022-12-08T00:54:31.033Z,98304.00
2022-12-08T00:57:35.971Z,98310.80
2022-12-08T01:00:43.264Z,98310.60
2022-12-08T01:03:48.664Z,98308.40
2022-12-08T01:06:53.616Z,98307.80
2022-12-08T01:09:58.481Z,98308.00
2022-12-08T01:13:03.146Z,98316.60
2022-12-08T01:16:08.631Z,98313.40
2022-12-08T01:19:16.746Z,98313.40
2022-12-08T01:22:21.707Z,98308.60
2022-12-08T01:25:26.239Z,98312.60
2022-12-08T01:28:32.234Z,98316.80
2022-12-08T01:31:36.936Z,98310.60
2022-12-08T01:34:41.972Z,98318.00
2022-12-08T01:37:46.804Z,98307.40
2022-12-08T01:40:51.922Z,98302.60
2022-12-08T01:44:03.419Z,98297.60
2022-12-08T01:47:08.562Z,98297.40
2022-12-08T01:50:19.516Z,98294.00
2022-12-08T01:53:29.882Z,98291.80
2022-12-08T01:56:42.935Z,98290.40
2022-12-08T01:59:53.187Z,98286.60
2022-12-08T02:03:03.332Z,98282.60
2022-12-08T02:06:08.830Z,98281.20
2022-12-08T02:09:15.258Z,98275.60
2022-12-08T02:12:20.259Z,98275.20
2022-12-08T02:15:38.697Z,98270.80
2022-12-08T02:19:29.692Z,98271.40
2022-12-08T02:22:39.846Z,98276.60
2022-12-08T02:26:14.474Z,98272.00
2022-12-08T02:29:52.657Z,98267.40
2022-12-08T02:33:39.803Z,98261.00
2022-12-08T02:36:58.756Z,98262.60
2022-12-08T02:40:15.668Z,98266.20
2022-12-08T02:43:33.827Z,98262.40
2022-12-08T02:46:48.439Z,98259.00
2022-12-08T02:49:54.461Z,98251.00
2022-12-08T02:52:59.397Z,98246.40
2022-12-08T02:56:22.911Z,98259.80
2022-12-08T02:59:53.511Z,98251.60
2022-12-08T03:03:17.253Z,98246.40
2022-12-08T03:06:32.488Z,98249.60
2022-12-08T03:09:46.424Z,98248.00
2022-12-08T03:12:59.123Z,98244.80
2022-12-08T03:16:09.350Z,98247.20
2022-12-08T03:19:21.084Z,98241.80
2022-12-08T03:22:28.910Z,98247.60
2022-12-08T03:25:40.772Z,98244.60
2022-12-08T03:28:46.501Z,98241.20
2022-12-08T03:31:55.946Z,98239.20
2022-12-08T03:35:08.056Z,98236.60
2022-12-08T03:38:16.604Z,98233.80
2022-12-08T03:41:22.567Z,98230.40
2022-12-08T03:44:27.317Z,98238.80
2022-12-08T03:47:32.121Z,98236.60
2022-12-08T03:50:37.170Z,98234.80
2022-12-08T03:53:41.784Z,98227.20
2022-12-08T03:56:46.592Z,98229.20
2022-12-08T03:59:51.559Z,98233.20
2022-12-08T04:02:56.610Z,98230.40
2022-12-08T04:06:01.350Z,98227.40
2022-12-08T04:09:06.362Z,98224.40
2022-12-08T04:12:10.898Z,98227.80
2022-12-08T04:15:15.897Z,98217.60
2022-12-08T04:18:20.461Z,98217.20
2022-12-08T04:21:25.631Z,98210.40
2022-12-08T04:24:30.623Z,98205.40
2022-12-08T04:27:35.401Z,98203.00
2022-12-08T04:30:40.524Z,98202.80
2022-12-08T04:33:45.463Z,98198.20
2022-12-08T04:36:50.036Z,98198.40
2022-12-08T04:39:54.873Z,98203.60
2022-12-08T04:42:59.651Z,98203.00
2022-12-08T04:46:07.673Z,98207.60
2022-12-08T04:49:12.595Z,98198.00
2022-12-08T04:52:17.479Z,98194.40
2022-12-08T04:55:22.333Z,98202.40
2022-12-08T04:58:27.125Z,98204.40
2022-12-08T05:01:32.175Z,98206.80
2022-12-08T05:04:37.169Z,98202.40
2022-12-08T05:07:41.758Z,98199.80
2022-12-08T05:10:46.451Z,98205.00
2022-12-08T05:13:51.243Z,98202.80
2022-12-08T05:16:56.204Z,98203.40
2022-12-08T05:20:00.990Z,98205.20
2022-12-08T05:23:06.427Z,98204.80
2022-12-08T05:26:11.157Z,98206.80
2022-12-08T05:29:15.919Z,98206.40
2022-12-08T05:32:20.699Z,98200.20
2022-12-08T05:35:25.725Z,98196.00
2022-12-08T05:38:30.256Z,98197.40
2022-12-08T05:41:35.270Z,98193.20
2022-12-08T05:44:40.087Z,98197.60
2022-12-08T05:47:44.919Z,98188.80
2022-12-08T05:50:51.034Z,98186.60
2022-12-08T05:53:57.496Z,98186.80
2022-12-08T05:57:02.441Z,98195.40
2022-12-08T06:00:10.219Z,98197.60
2022-12-08T06:03:16.637Z,98192.40
2022-12-08T06:06:22.017Z,98197.00
2022-12-08T06:09:27.109Z,98200.20
2022-12-08T06:12:32.051Z,98199.00
2022-12-08T06:15:37.071Z,98191.20
2022-12-08T06:18:42.168Z,98195.20
2022-12-08T06:21:47.848Z,98199.40
2022-12-08T06:24:52.917Z,98198.80
2022-12-08T06:27:57.447Z,98202.20
2022-12-08T06:31:08.184Z,98206.40
2022-12-08T06:34:12.644Z,98205.60
2022-12-08T06:37:17.590Z,98211.80
2022-12-08T06:40:22.276Z,98211.00
2022-12-08T06:43:27.761Z,98208.60
2022-12-08T06:46:32.645Z,98213.40
2022-12-08T06:49:37.978Z,98212.20
2022-12-08T06:52:53.030Z,98207.60
2022-12-08T06:56:04.232Z,98217.20
2022-12-08T06:59:09.749Z,98213.60
2022-12-08T07:02:14.931Z,98211.00
2022-12-08T07:05:19.818Z,98217.20
2022-12-08T07:08:24.608Z,98216.60
2022-12-08T07:11:29.424Z,98213.40
2022-12-08T07:14:34.360Z,98218.40
2022-12-08T07:17:39.304Z,98215.80
2022-12-08T07:20:44.190Z,98215.00
2022-12-08T07:23:54.198Z,98209.80
2022-12-08T07:27:02.448Z,98209.80
2022-12-08T07:30:11.129Z,98210.60
2022-12-08T07:33:15.717Z,98201.60
2022-12-08T07:36:21.445Z,98200.60
2022-12-08T07:39:26.927Z,98205.60
2022-12-08T07:42:31.798Z,98206.60
2022-12-08T07:45:37.044Z,98202.40
2022-12-08T07:48:41.661Z,98203.80
2022-12-08T07:51:46.195Z,98205.80
2022-12-08T07:54:50.765Z,98197.60
2022-12-08T07:57:55.495Z,98209.40
2022-12-08T08:01:00.270Z,98220.20
2022-12-08T08:04:06.398Z,98220.80
2022-12-08T08:07:11.440Z,98214.40
2022-12-08T08:10:16.277Z,98211.40
2022-12-08T08:13:20.798Z,98215.80
2022-12-08T08:16:25.560Z,98216.40
2022-12-08T08:19:30.777Z,98219.80
2022-12-08T08:22:36.212Z,98213.80
2022-12-08T08:25:40.742Z,98213.00
2022-12-08T08:28:45.785Z,98209.60
2022-12-08T08:31:50.685Z,98209.00
2022-12-08T08:34:55.648Z,98201.40
2022-12-08T08:38:00.493Z,98204.60
2022-12-08T08:41:10.751Z,98207.40
2022-12-08T08:44:16.138Z,98211.00
2022-12-08T08:47:20.960Z,98205.60
2022-12-08T08:50:26.623Z,98203.40
2022-12-08T08:53:31.542Z,98206.40
2022-12-08T08:56:36.098Z,98211.40
2022-12-08T08:59:41.188Z,98204.40
2022-12-08T09:02:45.742Z,98194.80
2022-12-08T09:05:51.533Z,98190.60
2022-12-08T09:08:56.333Z,98189.40
2022-12-08T09:12:01.279Z,98197.60
2022-12-08T09:15:07.829Z,98188.20
2022-12-08T09:18:12.620Z,98191.40
2022-12-08T09:21:21.819Z,98192.20
2022-12-08T09:24:26.724Z,98186.80
2022-12-08T09:27:32.049Z,98184.60
2022-12-08T09:30:37.323Z,98176.20
2022-12-08T09:33:42.758Z,98173.20
2022-12-08T09:36:47.704Z,98162.60
2022-12-08T09:39:52.740Z,98155.40
2022-12-08T09:43:09.118Z,98146.60
2022-12-08T09:46:18.214Z,98151.00
2022-12-08T09:49:37.121Z,98160.00
2022-12-08T09:52:51.213Z,98163.40
2022-12-08T09:56:01.534Z,98155.40
2022-12-08T09:59:22.664Z,98161.60
2022-12-08T10:02:30.527Z,98170.20
2022-12-08T10:05:44.837Z,98170.80
2022-12-08T10:09:03.296Z,98157.20
2022-12-08T10:12:19.866Z,98157.40
2022-12-08T10:15:45.974Z,98150.40
2022-12-08T10:19:00.086Z,98145.60
2022-12-08T10:22:22.349Z,98149.00
2022-12-08T10:25:36.183Z,98135.60
2022-12-08T10:28:45.118Z,98127.80
2022-12-08T10:31:50.486Z,98123.80
2022-12-08T10:35:06.694Z,98109.80
2022-12-08T10:38:22.035Z,98107.20
2022-12-08T10:41:26.738Z,98104.80
2022-12-08T10:44:31.374Z,98098.80
2022-12-08T10:47:44.850Z,98085.40
2022-12-08T10:50:57.575Z,98080.40
2022-12-08T10:54:02.957Z,98078.20
2022-12-08T10:57:20.172Z,98070.40
2022-12-08T11:03:50.216Z,98053.20
2022-12-08T11:06:55.563Z,98041.80
2022-12-08T11:10:00.745Z,98030.20
2022-12-08T11:13:13.360Z,98035.00
2022-12-08T11:16:20.026Z,98034.80
2022-12-08T11:19:28.823Z,98024.60
2022-12-08T11:22:38.696Z,98027.00
2022-12-08T11:25:42.583Z,98028.00
2022-12-08T11:28:47.560Z,98026.60
2022-12-08T11:31:59.569Z,98021.40
2022-12-08T11:35:10.342Z,98017.00
2022-12-08T11:38:22.180Z,98016.20
2022-12-08T11:41:33.943Z,98014.00
2022-12-08T11:44:49.307Z,98010.00
2022-12-08T11:48:12.153Z,97998.20
2022-12-08T11:51:22.414Z,97986.80
2022-12-08T11:54:32.416Z,97984.60
2022-12-08T11:57:37.163Z,97990.20
2022-12-08T12:00:42.051Z,97988.00
2022-12-08T12:03:59.085Z,97982.20
2022-12-08T12:07:47.549Z,97980.40
2022-12-08T12:11:33.980Z,97981.20
2022-12-08T12:15:09.016Z,97988.80
2022-12-08T12:18:26.022Z,97980.00
2022-12-08T12:21:38.014Z,97987.60
2022-12-08T12:24:48.327Z,97987.20
2022-12-08T12:27:58.723Z,97992.80
2022-12-08T12:31:09.921Z,97996.80
2022-12-08T12:34:22.413Z,97998.20
2022-12-08T12:37:37.357Z,97992.20
2022-12-08T12:40:43.968Z,97994.40
2022-12-08T12:44:40.724Z,97993.00
2022-12-08T12:47:56.302Z,97989.40
2022-12-08T12:51:21.985Z,97987.60
2022-12-08T12:54:27.667Z,97981.40
2022-12-08T12:57:40.034Z,97976.80
2022-12-08T13:00:45.005Z,97971.80
2022-12-08T13:04:04.313Z,97968.00
2022-12-08T13:07:19.889Z,97961.60
2022-12-08T13:10:29.140Z,97970.00
2022-12-08T13:13:34.692Z,97966.40
2022-12-08T13:16:40.523Z,97961.80
2022-12-08T13:19:51.928Z,97967.60
2022-12-08T13:23:41.583Z,97960.00
2022-12-08T13:26:48.678Z,97965.80
2022-12-08T13:30:43.800Z,97958.00
2022-12-08T13:33:48.919Z,97954.00
2022-12-08T13:37:08.889Z,97960.40
2022-12-08T13:40:22.458Z,97957.40
2022-12-08T13:43:55.569Z,97961.60
2022-12-08T13:47:32.792Z,97955.40
2022-12-08T13:51:23.605Z,97964.60
2022-12-08T13:57:41.454Z,97947.80
2022-12-08T14:01:00.157Z,97950.20
2022-12-08T14:04:34.222Z,97951.40
2022-12-08T14:07:31.222Z,97953.60
2022-12-08T14:10:36.664Z,97955.60
2022-12-08T14:13:42.015Z,97961.00
2022-12-08T14:16:54.937Z,97960.60
2022-12-08T14:20:02.222Z,97958.40
2022-12-08T14:23:09.640Z,97952.20
2022-12-08T14:26:14.773Z,97960.40
2022-12-08T14:29:37.323Z,97965.80
2022-12-08T14:32:48.445Z,97960.60
2022-12-08T14:35:56.043Z,97960.20
2022-12-08T14:39:00.958Z,97959.00
2022-12-08T14:42:16.617Z,97967.80
2022-12-08T14:45:22.287Z,97974.00
2022-12-08T14:48:42.173Z,97978.20
2022-12-08T14:51:45.873Z,97965.00
2022-12-08T14:54:53.360Z,97950.60
2022-12-08T14:57:57.989Z,97932.80
2022-12-08T15:01:05.878Z,97920.40
2022-12-08T15:04:19.927Z,97915.20
2022-12-08T15:07:31.929Z,97911.80
2022-12-08T15:10:39.468Z,97921.20
2022-12-08T15:13:48.062Z,97916.00
2022-12-08T15:16:53.789Z,97911.20
2022-12-08T15:20:00.392Z,97898.80
2022-12-08T15:23:05.604Z,97897.80
2022-12-08T15:26:26.551Z,97911.40
2022-12-08T15:29:31.970Z,97911.40
2022-12-08T15:32:37.275Z,97898.60
2022-12-08T15:35:42.478Z,97894.40
2022-12-08T15:38:47.721Z,97897.20
2022-12-08T15:41:52.964Z,97895.60
2022-12-08T15:44:58.008Z,97888.20
2022-12-08T15:48:02.824Z,97880.00
2022-12-08T15:51:08.066Z,97877.80
2022-12-08T15:54:12.917Z,97888.00
2022-12-08T16:00:52.965Z,97902.40
2022-12-08T16:07:29.668Z,97905.00
2022-12-08T16:11:00.731Z,97911.20
2022-12-08T16:14:23.276Z,97928.60
2022-12-08T16:17:25.227Z,97945.80
2022-12-08T16:21:05.458Z,97950.80
2022-12-08T16:23:55.881Z,97951.20
2022-12-08T16:27:58.665Z,97937.80
2022-12-08T16:30:26.140Z,97935.80
2022-12-08T16:33:31.198Z,97925.40
2022-12-08T16:36:36.115Z,97931.80
2022-12-08T16:39:45.629Z,97948.80
2022-12-08T16:42:51.735Z,97950.20
2022-12-08T16:45:56.632Z,97954.80
2022-12-08T16:49:05.231Z,97954.00
2022-12-08T16:52:10.522Z,97944.40
2022-12-08T16:55:20.921Z,97937.40
2022-12-08T16:58:25.918Z,97933.40
2022-12-08T17:01:31.673Z,97924.40
2022-12-08T17:04:36.588Z,97923.00
2022-12-08T17:07:42.246Z,97928.80
2022-12-08T17:11:06.754Z,97915.20
2022-12-08T17:14:12.039Z,97907.20
2022-12-08T17:17:16.673Z,97898.40
2022-12-08T17:20:26.093Z,97893.00
2022-12-08T17:23:31.010Z,97901.40
2022-12-08T17:26:36.171Z,97900.20
2022-12-08T17:29:41.112Z,97899.20
2022-12-08T17:32:46.108Z,97900.40
2022-12-08T17:35:53.467Z,97899.80
2022-12-08T17:39:00.404Z,97899.20
2022-12-08T17:42:06.688Z,97897.40
2022-12-08T17:45:12.735Z,97894.80
2022-12-08T17:48:17.559Z,97893.20
2022-12-08T17:51:22.591Z,97893.80
2022-12-08T17:54:29.277Z,97896.80
2022-12-08T17:57:34.205Z,97898.20
2022-12-08T18:00:39.218Z,97895.00
2022-12-08T18:03:44.694Z,97903.20
2022-12-08T18:06:50.074Z,97903.60
2022-12-08T18:09:55.282Z,97899.80
2022-12-08T18:13:03.381Z,97906.20
2022-12-08T18:16:10.333Z,97909.00
2022-12-08T18:19:16.869Z,97911.20
2022-12-08T18:22:21.878Z,97913.00
2022-12-08T18:25:26.832Z,97917.60
2022-12-08T18:28:32.171Z,97918.80
2022-12-08T18:31:37.246Z,97914.20
2022-12-08T18:34:42.849Z,97908.20
2022-12-08T18:37:47.795Z,97895.20
2022-12-08T18:40:53.047Z,97898.60
2022-12-08T18:43:58.207Z,97900.20
2022-12-08T18:47:03.513Z,97902.80
2022-12-08T18:50:12.345Z,97903.60
2022-12-08T18:53:18.037Z,97900.00
2022-12-08T18:56:26.764Z,97896.80
2022-12-08T18:59:32.192Z,97896.80
2022-12-08T19:02:38.179Z,97896.20
2022-12-08T19:05:44.435Z,97898.80
2022-12-08T19:08:50.250Z,97892.40
2022-12-08T19:11:55.543Z,97887.60
2022-12-08T19:15:00.654Z,97885.60
2022-12-08T19:18:06.098Z,97886.00
2022-12-08T19:21:12.195Z,97888.80
2022-12-08T19:24:17.835Z,97887.00
2022-12-08T19:27:23.072Z,97889.20
2022-12-08T19:30:28.293Z,97891.80
2022-12-08T19:33:33.986Z,97893.80
2022-12-08T19:36:43.174Z,97896.20
2022-12-08T19:40:06.316Z,97902.40
2022-12-08T19:43:35.968Z,97905.60
2022-12-08T19:46:41.350Z,97900.20
2022-12-08T19:49:47.660Z,97895.40
2022-12-08T19:52:55.360Z,97890.80
2022-12-08T19:56:00.548Z,97888.80
2022-12-08T19:59:05.486Z,97885.00
2022-12-08T20:02:12.852Z,97883.40
2022-12-08T20:05:18.119Z,97883.60
2022-12-08T20:08:23.241Z,97882.80
2022-12-08T20:11:27.921Z,97882.00
2022-12-08T20:14:33.429Z,97871.60
2022-12-08T20:17:38.571Z,97864.20
2022-12-08T20:20:45.860Z,97865.00
2022-12-08T20:23:51.550Z,97870.20
2022-12-08T20:26:56.638Z,97869.80
2022-12-08T20:30:01.675Z,97865.80
2022-12-08T20:33:06.663Z,97869.00
2022-12-08T20:36:18.167Z,97879.60
2022-12-08T20:39:23.293Z,97884.60
2022-12-08T20:42:28.400Z,97886.60
2022-12-08T20:45:33.777Z,97893.00
2022-12-08T20:48:39.176Z,97894.80
2022-12-08T20:51:44.122Z,97896.00
2022-12-08T20:54:49.371Z,97889.80
2022-12-08T20:57:54.543Z,97890.80
2022-12-08T21:00:59.404Z,97885.60
2022-12-08T21:04:05.049Z,97888.00
2022-12-08T21:07:10.398Z,97887.00
2022-12-08T21:10:16.561Z,97885.00
2022-12-08T21:13:21.517Z,97886.20
2022-12-08T21:16:26.484Z,97890.40
2022-12-08T21:19:35.352Z,97891.60
2022-12-08T21:22:40.298Z,97888.60
2022-12-08T21:25:46.955Z,97890.60
2022-12-08T21:28:54.056Z,97885.00
2022-12-08T21:32:00.162Z,97884.40
2022-12-08T21:35:06.284Z,97889.00
2022-12-08T21:38:11.243Z,97883.60
2022-12-08T21:41:40.552Z,97885.80
2022-12-08T21:44:45.120Z,97884.60
2022-12-08T21:47:50.672Z,97877.40
2022-12-08T21:50:56.210Z,97879.20
2022-12-08T21:54:01.637Z,97876.60
2022-12-08T21:57:06.538Z,97870.40
2022-12-08T22:00:16.635Z,97876.40
2022-12-08T22:03:21.331Z,97878.40
2022-12-08T22:06:26.609Z,97885.60
2022-12-08T22:09:31.468Z,97883.00
2022-12-08T22:12:37.894Z,97892.00
2022-12-08T22:15:42.671Z,97890.40
2022-12-08T22:18:47.785Z,97883.60
2022-12-08T22:21:54.303Z,97880.40
2022-12-08T22:24:59.200Z,97878.60
2022-12-08T22:28:04.701Z,97877.80
2022-12-08T22:31:16.252Z,97872.80
2022-12-08T22:34:21.123Z,97874.20
2022-12-08T22:37:26.011Z,97872.40
2022-12-08T22:40:30.569Z,97875.40
2022-12-08T22:43:36.744Z,97870.20
2022-12-08T22:46:41.382Z,97870.20
2022-12-08T22:49:46.353Z,97868.20
2022-12-08T22:52:52.571Z,97873.40
2022-12-08T22:55:57.399Z,97877.00
2022-12-08T22:59:02.020Z,97875.60
2022-12-08T23:02:06.998Z,97873.40
2022-12-08T23:05:13.030Z,97866.80
2022-12-08T23:08:18.915Z,97870.20
2022-12-08T23:11:27.176Z,97869.80
2022-12-08T23:14:31.974Z,97863.00
2022-12-08T23:17:36.674Z,97863.00
2022-12-08T23:20:42.274Z,97871.40
2022-12-08T23:23:48.246Z,97872.40
2022-12-08T23:26:53.171Z,97867.20
2022-12-08T23:29:58.160Z,97868.40
2022-12-08T23:33:03.204Z,97876.00
2022-12-08T23:36:09.529Z,97868.80
2022-12-08T23:39:14.741Z,97876.80
2022-12-08T23:42:19.618Z,97872.40
2022-12-08T23:45:24.678Z,97861.80
2022-12-08T23:48:29.690Z,97865.20
2022-12-08T23:51:34.595Z,97863.20
2022-12-08T23:54:39.614Z,97856.80
2022-12-08T23:57:44.617Z,97858.60
